createdAt,value
2023-04-20T00:02:45.835Z,0
2023-04-20T00:09:05.881Z,0
2023-04-20T00:15:28.764Z,0
2023-04-20T00:21:48.794Z,0
2023-04-20T00:28:11.808Z,0
2023-04-20T00:34:31.917Z,0
2023-04-20T00:40:54.793Z,0
2023-04-20T00:47:14.849Z,0
2023-04-20T00:53:37.842Z,0
2023-04-20T00:59:57.855Z,0
2023-04-20T01:06:20.825Z,0
2023-04-20T01:12:40.880Z,0
2023-04-20T01:19:03.754Z,0
2023-04-20T01:25:23.828Z,0
2023-04-20T01:31:46.829Z,0
2023-04-20T01:38:06.805Z,0
2023-04-20T01:44:29.788Z,0
2023-04-20T01:50:49.845Z,0
2023-04-20T01:57:12.922Z,0
2023-04-20T02:03:32.953Z,0
2023-04-20T02:09:55.874Z,0
2023-04-20T02:16:15.875Z,0
2023-04-20T02:22:38.893Z,0
2023-04-20T02:28:58.814Z,0
2023-04-20T02:35:21.766Z,0
2023-04-20T02:41:41.851Z,0
2023-04-20T02:48:04.862Z,0
2023-04-20T02:54:24.806Z,0
2023-04-20T03:00:47.768Z,0
2023-04-20T03:07:07.920Z,0
2023-04-20T03:29:55.790Z,0
2023-04-20T03:36:18.735Z,0
2023-04-20T03:42:38.752Z,0
2023-04-20T03:49:01.767Z,0
2023-04-20T03:55:21.782Z,0
2023-04-20T04:01:44.778Z,0
2023-04-20T04:08:04.856Z,0
2023-04-20T04:14:27.740Z,0
2023-04-20T04:20:47.843Z,0
2023-04-20T04:27:10.791Z,0
2023-04-20T04:33:30.796Z,0
2023-04-20T04:39:53.781Z,0
2023-04-20T04:46:13.886Z,0
2023-04-20T04:52:36.852Z,0
2023-04-20T04:58:56.829Z,0
2023-04-20T05:05:19.835Z,5.62
2023-04-20T05:11:39.818Z,5.62
2023-04-20T05:18:02.873Z,5.62
2023-04-20T05:24:22.820Z,5.62
2023-04-20T05:30:45.884Z,11.25
2023-04-20T05:37:05.803Z,11.25
2023-04-20T05:43:28.886Z,11.25
2023-04-20T05:49:48.783Z,5.62
2023-04-20T05:56:11.814Z,11.25
2023-04-20T06:02:31.943Z,11.25
2023-04-20T06:08:54.873Z,11.25
2023-04-20T06:15:14.792Z,11.25
2023-04-20T06:21:37.835Z,28.12
2023-04-20T06:27:57.754Z,16.88
2023-04-20T06:34:20.838Z,5.62
2023-04-20T06:40:40.936Z,16.88
2023-04-20T06:47:03.969Z,22.5
2023-04-20T06:53:23.799Z,28.12
2023-04-20T06:59:46.772Z,45
2023-04-20T07:06:06.820Z,45
2023-04-20T07:12:29.766Z,56.25
2023-04-20T07:18:49.939Z,61.88
2023-04-20T07:25:13.047Z,73.12
2023-04-20T07:31:35.263Z,61.88
2023-04-20T07:37:55.910Z,56.25
2023-04-20T07:44:15.763Z,56.25
2023-04-20T07:50:38.798Z,56.25
2023-04-20T07:56:59.094Z,67.5
2023-04-20T08:03:21.954Z,73.12
2023-04-20T08:09:41.792Z,84.38
2023-04-20T08:16:04.893Z,78.75
2023-04-20T08:32:29.769Z,90
2023-04-20T08:38:49.728Z,56.25
2023-04-20T08:45:12.787Z,28.12
2023-04-20T08:51:32.896Z,61.88
2023-04-20T08:57:55.795Z,73.12
2023-04-20T09:04:16.328Z,84.38
2023-04-20T09:10:38.837Z,78.75
2023-04-20T09:16:58.808Z,78.75
2023-04-20T09:23:21.905Z,90
2023-04-20T09:29:41.782Z,101.25
2023-04-20T09:36:04.780Z,84.38
2023-04-20T09:42:25.031Z,50.62
2023-04-20T09:48:47.874Z,90
2023-04-20T09:55:07.751Z,118.12
2023-04-20T10:01:30.823Z,106.88
2023-04-20T10:07:50.782Z,101.25
2023-04-20T10:14:13.734Z,112.5
2023-04-20T10:20:33.759Z,90
2023-04-20T10:26:56.765Z,106.88
2023-04-20T10:33:16.948Z,84.38
2023-04-20T10:39:39.761Z,61.88
2023-04-20T10:45:59.892Z,95.62
2023-04-20T10:52:22.914Z,106.88
2023-04-20T10:58:42.767Z,106.88
2023-04-20T11:05:06.086Z,101.25
2023-04-20T11:11:25.980Z,112.5
2023-04-20T11:17:48.804Z,95.62
2023-04-20T11:24:09.074Z,157.5
2023-04-20T11:30:31.768Z,106.88
2023-04-20T11:36:51.822Z,118.12
2023-04-20T11:43:14.900Z,129.38
2023-04-20T11:49:34.941Z,123.75
2023-04-20T11:55:57.740Z,174.38
2023-04-20T12:02:17.891Z,157.5
2023-04-20T12:08:40.741Z,146.25
2023-04-20T12:15:00.741Z,151.88
2023-04-20T12:21:23.817Z,140.62
2023-04-20T12:27:43.755Z,118.12
2023-04-20T12:34:06.769Z,118.12
2023-04-20T12:40:26.825Z,95.62
2023-04-20T12:46:49.803Z,129.38
2023-04-20T12:53:09.801Z,202.5
2023-04-20T12:59:32.781Z,236.25
2023-04-20T13:05:52.787Z,90
2023-04-20T13:12:15.740Z,90
2023-04-20T13:18:35.911Z,168.75
2023-04-20T13:24:58.766Z,174.38
2023-04-20T13:40:29.743Z,61.88
2023-04-20T13:46:49.749Z,78.75
2023-04-20T13:53:12.755Z,73.12
2023-04-20T13:59:32.857Z,84.38
2023-04-20T14:05:55.832Z,106.88
2023-04-20T14:12:15.830Z,84.38
2023-04-20T14:18:38.847Z,84.38
2023-04-20T14:24:58.840Z,84.38
2023-04-20T14:31:21.877Z,101.25
2023-04-20T14:37:41.816Z,90
2023-04-20T14:44:04.840Z,123.75
2023-04-20T14:50:24.754Z,101.25
2023-04-20T14:56:47.789Z,151.88
2023-04-20T15:03:07.907Z,129.38
2023-04-20T15:09:30.767Z,135
2023-04-20T15:15:52.081Z,106.88
2023-04-20T15:22:13.985Z,106.88
2023-04-20T15:28:33.794Z,129.38
2023-04-20T15:34:56.766Z,151.88
2023-04-20T15:41:16.754Z,168.75
2023-04-20T15:47:39.817Z,67.5
2023-04-20T15:53:59.784Z,67.5
2023-04-20T16:00:22.814Z,84.38
2023-04-20T16:06:42.763Z,28.12
2023-04-20T16:13:05.803Z,5.62
2023-04-20T16:19:25.809Z,16.88
2023-04-20T16:25:48.774Z,33.75
2023-04-20T16:32:08.891Z,33.75
2023-04-20T16:38:31.756Z,33.75
2023-04-20T16:44:51.794Z,22.5
2023-04-20T16:51:14.831Z,11.25
2023-04-20T16:57:34.784Z,11.25
2023-04-20T17:03:57.992Z,11.25
2023-04-20T17:10:17.857Z,22.5
2023-04-20T17:16:40.861Z,33.75
2023-04-20T17:23:00.777Z,39.38
2023-04-20T17:29:23.894Z,28.12
2023-04-20T17:35:43.811Z,16.88
2023-04-20T17:42:06.768Z,5.62
2023-04-20T17:48:26.905Z,11.25
2023-04-20T17:54:49.915Z,11.25
2023-04-20T18:01:09.884Z,22.5
2023-04-20T18:07:32.892Z,5.62
2023-04-20T18:13:52.782Z,5.62
2023-04-20T18:20:15.755Z,5.62
2023-04-20T18:26:35.873Z,0
2023-04-20T18:32:58.801Z,0
2023-04-20T18:39:18.810Z,0
2023-04-20T18:56:14.702Z,0
2023-04-20T19:02:34.879Z,0
2023-04-20T19:08:57.834Z,0
2023-04-20T19:15:17.905Z,0
2023-04-20T19:21:40.785Z,0
2023-04-20T19:28:01.854Z,0
2023-04-20T19:34:24.770Z,0
2023-04-20T19:40:44.743Z,0
2023-04-20T19:47:08.078Z,0
2023-04-20T19:53:27.797Z,0
2023-04-20T19:59:50.820Z,0
2023-04-20T20:06:10.788Z,0
2023-04-20T20:12:33.814Z,0
2023-04-20T20:18:54.480Z,0
2023-04-20T20:25:17.769Z,0
2023-04-20T20:31:37.896Z,0
2023-04-20T20:38:00.827Z,0
2023-04-20T20:44:20.904Z,0
2023-04-20T20:50:43.855Z,0
2023-04-20T20:57:03.788Z,0
2023-04-20T21:03:26.959Z,0
2023-04-20T21:09:46.815Z,0
2023-04-20T21:16:09.882Z,0
2023-04-20T21:22:29.767Z,0
2023-04-20T21:28:52.774Z,0
2023-04-20T21:35:12.736Z,0
2023-04-20T21:41:35.889Z,0
2023-04-20T21:47:55.783Z,0
2023-04-20T21:54:18.850Z,0
2023-04-20T22:00:38.837Z,0
2023-04-20T22:23:35.768Z,0
2023-04-20T22:29:55.788Z,0
2023-04-20T22:36:18.750Z,0
2023-04-20T22:42:38.916Z,0
2023-04-20T22:49:01.780Z,0
2023-04-20T22:55:21.856Z,0
2023-04-20T23:01:44.910Z,0
2023-04-20T23:08:04.753Z,0
2023-04-20T23:14:27.739Z,0
2023-04-20T23:20:47.774Z,0
2023-04-20T23:27:10.799Z,0
2023-04-20T23:33:30.814Z,0
2023-04-20T23:39:53.850Z,0
2023-04-20T23:46:13.789Z,0
2023-04-20T23:52:36.739Z,0
2023-04-20T23:58:56.790Z,0
